Time;durP1;ratioP1;P1;durP2;ratioP2;P2;SDS_P1;SDS_P2;PMS_P1;PMS_P2;Temp;Humidity;BMP_temperature;BMP_pressure;BME280_temperature;BME280_humidity;BME280_pressure;Samples;Min_cycle;Max_cycle;Signal;HPM_P1;HPM_P2
2022/04/05 06:01:29;;;;;;;53.75;12.95;;;;;;;;;;5429515;23;20055;-83
2022/04/05 06:03:56;;;;;;;56.60;11.75;;;;;;;;;;4967610;28;20054;-83
2022/04/05 06:06:23;;;;;;;65.20;13.00;;;;;;;;;;4967341;28;20526;-82
2022/04/05 06:08:49;;;;;;;57.15;11.57;;;;;;;;;;4971464;28;20050;-82
2022/04/05 06:11:16;;;;;;;62.28;13.50;;;;;;;;;;4967374;28;20064;-82
2022/04/05 06:13:43;;;;;;;55.13;11.90;;;;;;;;;;4967645;28;20503;-83
2022/04/05 06:16:09;;;;;;;51.22;11.07;;;;;;;;;;4952817;28;20384;-80
2022/04/05 06:18:36;;;;;;;63.30;13.15;;;;;;;;;;4967994;28;20082;-84
2022/04/05 06:21:02;;;;;;;65.97;12.48;;;;;;;;;;4969999;28;20050;-83
2022/04/05 06:23:29;;;;;;;48.50;11.27;;;;;;;;;;4968442;28;20081;-84
2022/04/05 06:25:59;;;;;;;47.70;10.98;;;;;;;;;;4963869;28;20051;-85
2022/04/05 06:28:26;;;;;;;49.30;10.93;;;;;;;;;;4965383;28;20093;-85
2022/04/05 06:30:52;;;;;;;50.97;10.98;;;;;;;;;;4966369;28;20472;-85
2022/04/05 06:33:22;;;;;;;46.22;10.43;;;;;;;;;;4966224;28;20079;-84
2022/04/05 06:35:51;;;;;;;45.00;11.00;;;;;;;;;;4966455;28;20646;-84
2022/04/05 06:38:19;;;;;;;53.47;10.30;;;;;;;;;;4968935;28;20046;-84
2022/04/05 06:40:46;;;;;;;40.60;10.82;;;;;;;;;;4969020;28;20058;-83
2022/04/05 06:43:15;;;;;;;40.08;9.70;;;;;;;;;;4968796;28;20082;-84
2022/04/05 06:45:42;;;;;;;40.70;9.07;;;;;;;;;;4969296;28;20086;-84
2022/04/05 06:48:09;;;;;;;42.72;8.77;;;;;;;;;;4968287;28;20050;-84
2022/04/05 06:50:37;;;;;;;39.13;8.52;;;;;;;;;;4970125;28;20074;-85
2022/04/05 06:53:06;;;;;;;;;;;;;;;;;;4951019;28;20523;-85
2022/04/05 06:55:32;;;;;;;38.85;8.95;;;;;;;;;;4968255;28;19957;-84
2022/04/05 06:57:59;;;;;;;49.03;9.25;;;;;;;;;;4968838;28;20123;-85
2022/04/05 07:00:26;;;;;;;50.17;9.35;;;;;;;;;;4967984;28;20059;-85
2022/04/05 07:02:54;;;;;;;43.05;8.13;;;;;;;;;;4968960;28;20527;-85
2022/04/05 07:05:22;;;;;;;46.30;9.07;;;;;;;;;;4968865;28;20077;-85
2022/04/05 07:07:49;;;;;;;42.73;8.30;;;;;;;;;;4969465;28;20541;-85
2022/04/05 07:10:18;;;;;;;49.58;8.73;;;;;;;;;;4968334;28;20729;-85
2022/04/05 07:12:45;;;;;;;45.85;8.88;;;;;;;;;;4969203;28;20051;-84
2022/04/05 07:15:12;;;;;;;38.20;8.23;;;;;;;;;;4968464;28;20107;-84
2022/04/05 07:17:40;;;;;;;37.33;7.43;;;;;;;;;;4952323;28;20412;-84
2022/04/05 07:20:27;;;;;;;37.83;6.85;;;;;;;;;;4968683;28;20105;-85
2022/04/05 07:22:53;;;;;;;31.70;6.97;;;;;;;;;;4968220;28;20460;-85
2022/04/05 07:25:20;;;;;;;39.35;6.07;;;;;;;;;;4967893;28;20126;-84
2022/04/05 07:27:51;;;;;;;32.30;6.10;;;;;;;;;;4969107;28;20055;-84
2022/04/05 07:30:19;;;;;;;37.03;6.30;;;;;;;;;;4968518;28;20070;-85
2022/04/05 07:32:47;;;;;;;27.90;5.25;;;;;;;;;;4969616;28;20531;-84
2022/04/05 07:35:16;;;;;;;30.92;6.32;;;;;;;;;;4968377;28;20082;-82
2022/04/05 07:37:42;;;;;;;22.77;5.38;;;;;;;;;;4964775;28;20050;-85
2022/04/05 07:40:13;;;;;;;25.70;5.22;;;;;;;;;;4968289;28;20051;-83
2022/04/05 07:42:41;;;;;;;32.28;5.40;;;;;;;;;;4967342;28;20145;-83
2022/04/05 07:45:09;;;;;;;34.10;5.75;;;;;;;;;;4967060;28;20515;-84
2022/04/05 07:47:37;;;;;;;34.17;5.63;;;;;;;;;;4968125;28;20157;-83
2022/04/05 07:50:04;;;;;;;30.92;5.30;;;;;;;;;;4949942;28;20113;-86
2022/04/05 07:52:31;;;;;;;28.05;5.07;;;;;;;;;;4949336;28;20069;-84
2022/04/05 07:54:58;;;;;;;26.67;4.55;;;;;;;;;;4967188;28;20138;-82
2022/04/05 07:57:24;;;;;;;26.38;5.70;;;;;;;;;;4965546;28;20508;-82
2022/04/05 07:59:51;;;;;;;25.27;4.72;;;;;;;;;;4966101;28;20464;-82
2022/04/05 08:02:18;;;;;;;36.97;4.90;;;;;;;;;;4966309;28;20133;-82
2022/04/05 08:04:55;;;;;;;22.70;4.20;;;;;;;;;;4966912;28;20058;-84
2022/04/05 08:07:21;;;;;;;28.55;4.68;;;;;;;;;;4966303;28;20113;-84
2022/04/05 08:09:48;;;;;;;34.75;4.72;;;;;;;;;;4967030;28;20161;-82
2022/04/05 08:12:14;;;;;;;40.35;6.00;;;;;;;;;;4965378;28;20128;-82
2022/04/05 08:14:42;;;;;;;26.45;4.43;;;;;;;;;;4967420;28;20515;-84
2022/04/05 08:17:09;;;;;;;25.52;4.03;;;;;;;;;;4949033;28;20506;-82
2022/04/05 08:19:36;;;;;;;28.10;4.25;;;;;;;;;;4966802;28;20051;-83
2022/04/05 08:22:03;;;;;;;25.65;4.40;;;;;;;;;;4949059;28;20506;-83
2022/04/05 08:24:29;;;;;;;30.65;3.80;;;;;;;;;;4966612;28;20058;-83
2022/04/05 08:26:56;;;;;;;24.63;3.90;;;;;;;;;;4966762;28;20146;-83
2022/04/05 08:29:22;;;;;;;24.58;4.30;;;;;;;;;;4964520;28;20644;-82
2022/04/05 08:31:49;;;;;;;23.67;3.45;;;;;;;;;;4964724;28;20054;-85
2022/04/05 08:34:15;;;;;;;16.10;3.38;;;;;;;;;;4966554;28;20075;-83
2022/04/05 08:36:42;;;;;;;21.38;3.38;;;;;;;;;;4982114;28;20051;-83
2022/04/05 08:39:09;;;;;;;21.92;3.42;;;;;;;;;;4986015;28;20077;-84
2022/04/05 08:41:36;;;;;;;16.77;3.30;;;;;;;;;;4978421;28;20070;-83
2022/04/05 08:44:03;;;;;;;22.63;4.00;;;;;;;;;;4966198;28;20042;-82
2022/04/05 08:46:34;;;;;;;29.88;4.25;;;;;;;;;;4966294;28;20476;-83
2022/04/05 08:49:02;;;;;;;16.20;3.78;;;;;;;;;;4966256;28;20043;-83
2022/04/05 08:51:30;;;;;;;20.52;3.58;;;;;;;;;;4966107;28;20051;-84
2022/04/05 08:53:57;;;;;;;13.17;3.77;;;;;;;;;;4966281;28;20518;-84
2022/04/05 08:56:27;;;;;;;19.30;3.65;;;;;;;;;;4966071;28;20137;-83
2022/04/05 08:58:54;;;;;;;17.80;3.28;;;;;;;;;;4948162;28;20047;-83
2022/04/05 09:01:21;;;;;;;20.88;3.72;;;;;;;;;;4964954;28;20043;-83
2022/04/05 09:03:49;;;;;;;27.02;3.97;;;;;;;;;;4965981;28;20042;-83
2022/04/05 09:06:33;;;;;;;22.90;3.60;;;;;;;;;;4965781;28;20476;-82
2022/04/05 09:09:11;;;;;;;19.33;3.53;;;;;;;;;;4966177;28;20146;-82
2022/04/05 09:11:49;;;;;;;21.35;4.57;;;;;;;;;;4965898;28;20154;-82
2022/04/05 09:14:27;;;;;;;17.52;4.15;;;;;;;;;;4963851;28;20190;-83
2022/04/05 09:17:08;;;;;;;18.25;4.53;;;;;;;;;;4965951;28;20077;-83
2022/04/05 09:19:42;;;;;;;17.70;3.53;;;;;;;;;;4966068;28;20059;-83
2022/04/05 09:22:09;;;;;;;24.35;3.78;;;;;;;;;;4965906;28;20434;-86
2022/04/05 09:24:43;;;;;;;19.67;3.58;;;;;;;;;;4966316;28;20058;-88
2022/04/05 09:27:10;;;;;;;13.85;2.75;;;;;;;;;;4966300;28;20078;-84
2022/04/05 09:29:41;;;;;;;20.45;3.95;;;;;;;;;;4967580;28;20117;-83
2022/04/05 09:32:09;;;;;;;25.00;4.13;;;;;;;;;;4965117;28;20133;-84
2022/04/05 09:34:51;;;;;;;16.83;3.00;;;;;;;;;;4960891;28;20042;-82
2022/04/05 09:37:25;;;;;;;18.33;3.47;;;;;;;;;;4966852;28;20046;-83
2022/04/05 09:39:55;;;;;;;20.90;3.42;;;;;;;;;;4966535;28;20059;-83
2022/04/05 09:42:21;;;;;;;20.42;4.32;;;;;;;;;;4943539;28;20420;-83
2022/04/05 09:44:48;;;;;;;20.77;2.92;;;;;;;;;;4949829;28;20182;-84
2022/04/05 09:47:20;;;;;;;18.33;3.20;;;;;;;;;;4948472;28;20129;-83
2022/04/05 09:49:50;;;;;;;20.65;4.07;;;;;;;;;;4963460;28;20070;-83
2022/04/05 09:52:30;;;;;;;16.35;2.67;;;;;;;;;;4963180;28;20280;-84
2022/04/05 09:55:14;;;;;;;17.58;2.90;;;;;;;;;;4959651;28;20399;-84
2022/04/05 09:57:42;;;;;;;16.35;2.88;;;;;;;;;;4964015;28;20129;-84
2022/04/05 10:00:10;;;;;;;24.92;3.00;;;;;;;;;;4948657;28;20089;-84
2022/04/05 10:03:08;;;;;;;18.25;3.03;;;;;;;;;;4965588;28;20129;-84
2022/04/05 10:05:35;;;;;;;;;;;;;;;;;;4963416;28;20400;-84
2022/04/05 10:08:03;;;;;;;15.57;3.10;;;;;;;;;;4964366;28;20048;-84
2022/04/05 10:10:30;;;;;;;12.48;2.80;;;;;;;;;;4947991;28;20573;-84
2022/04/05 10:12:57;;;;;;;13.43;2.45;;;;;;;;;;4951673;28;20145;-84
2022/04/05 10:15:25;;;;;;;15.25;2.80;;;;;;;;;;4968145;28;20130;-84
2022/04/05 10:17:53;;;;;;;21.83;3.13;;;;;;;;;;4968492;28;20164;-82
2022/04/05 10:20:20;;;;;;;12.38;2.53;;;;;;;;;;4968504;28;20039;-82
2022/04/05 10:22:53;;;;;;;14.20;2.58;;;;;;;;;;4968970;28;20126;-82
2022/04/05 10:25:21;;;;;;;12.27;2.10;;;;;;;;;;4966072;28;20054;-83
2022/04/05 10:27:49;;;;;;;14.50;2.78;;;;;;;;;;4968974;28;20126;-86
2022/04/05 10:30:21;;;;;;;15.88;2.53;;;;;;;;;;4967613;28;20043;-84
2022/04/05 10:32:56;;;;;;;19.70;3.20;;;;;;;;;;4969784;28;20120;-83
2022/04/05 10:35:25;;;;;;;13.63;2.38;;;;;;;;;;4968078;28;20081;-83
2022/04/05 10:38:13;;;;;;;16.63;2.67;;;;;;;;;;4968135;28;20050;-83
2022/04/05 10:40:40;;;;;;;13.15;2.67;;;;;;;;;;4963949;28;20070;-83
2022/04/05 10:43:25;;;;;;;12.90;2.45;;;;;;;;;;4951055;28;20056;-82
2022/04/05 10:45:52;;;;;;;11.60;2.50;;;;;;;;;;4951593;28;20554;-84
2022/04/05 10:48:25;;;;;;;15.02;2.85;;;;;;;;;;4950724;28;20051;-84
2022/04/05 10:51:01;;;;;;;13.50;2.55;;;;;;;;;;4969064;28;20113;-84
2022/04/05 10:53:33;;;;;;;12.15;2.75;;;;;;;;;;4968249;28;20074;-83
2022/04/05 10:56:02;;;;;;;12.65;2.40;;;;;;;;;;4968041;28;20066;-84
2022/04/05 10:58:31;;;;;;;11.30;2.58;;;;;;;;;;4968399;28;20082;-84
2022/04/05 11:01:24;;;;;;;15.07;2.58;;;;;;;;;;4950742;28;20046;-84
2022/04/05 11:04:12;;;;;;;17.75;2.97;;;;;;;;;;4959043;28;20050;-83
2022/04/05 11:07:05;;;;;;;16.58;2.70;;;;;;;;;;4967425;28;20475;-84
2022/04/05 11:09:34;;;;;;;11.73;2.53;;;;;;;;;;4967625;28;20052;-83
2022/04/05 11:12:08;;;;;;;12.60;2.60;;;;;;;;;;4950679;28;20488;-84
2022/04/05 11:14:35;;;;;;;21.27;3.80;;;;;;;;;;4969313;28;20130;-83
2022/04/05 11:17:06;;;;;;;13.00;3.05;;;;;;;;;;4967764;28;20054;-83
2022/04/05 11:19:39;;;;;;;16.02;3.10;;;;;;;;;;4967729;28;20507;-84
2022/04/05 11:22:27;;;;;;;18.70;2.90;;;;;;;;;;4947966;28;20488;-83
2022/04/05 11:25:10;;;;;;;18.52;2.78;;;;;;;;;;4962051;28;20078;-83
2022/04/05 11:27:47;;;;;;;20.92;3.70;;;;;;;;;;4967624;28;20054;-83
2022/04/05 11:30:39;;;;;;;16.20;4.22;;;;;;;;;;4967562;28;20055;-84
2022/04/05 11:33:09;;;;;;;17.30;3.38;;;;;;;;;;4966015;28;20587;-82
2022/04/05 11:35:52;;;;;;;17.35;3.55;;;;;;;;;;4968729;28;20492;-83
2022/04/05 11:38:19;;;;;;;17.30;3.40;;;;;;;;;;4968231;28;20109;-84
2022/04/05 11:41:06;;;;;;;20.40;3.22;;;;;;;;;;4952437;28;20582;-84
2022/04/05 11:43:36;;;;;;;14.90;2.75;;;;;;;;;;4951805;28;20503;-84
2022/04/05 11:46:15;;;;;;;13.57;2.88;;;;;;;;;;4952542;28;20606;-84
2022/04/05 11:48:51;;;;;;;17.08;2.97;;;;;;;;;;4964643;28;20092;-83
2022/04/05 11:51:23;;;;;;;16.40;3.67;;;;;;;;;;4952315;28;20137;-84
2022/04/05 11:54:27;;;;;;;15.57;3.35;;;;;;;;;;4970256;28;20822;-84
2022/04/05 11:57:03;;;;;;;14.37;2.53;;;;;;;;;;4967758;28;20046;-82
2022/04/05 11:59:31;;;;;;;16.58;2.35;;;;;;;;;;4968042;28;20086;-83
2022/04/05 12:01:58;;;;;;;13.93;2.88;;;;;;;;;;4967579;28;20082;-84
2022/04/05 12:04:25;;;;;;;15.55;3.33;;;;;;;;;;4967020;28;20046;-84
2022/04/05 12:07:01;;;;;;;16.60;3.45;;;;;;;;;;4950016;28;20150;-84
2022/04/05 12:09:28;;;;;;;14.77;2.80;;;;;;;;;;4947940;28;20047;-83
2022/04/05 12:11:54;;;;;;;20.38;3.53;;;;;;;;;;4968506;28;20470;-83
2022/04/05 12:14:24;;;;;;;14.98;3.38;;;;;;;;;;4966281;28;20109;-82
2022/04/05 12:16:58;;;;;;;14.63;2.55;;;;;;;;;;4967075;28;20141;-83
2022/04/05 12:19:28;;;;;;;16.05;3.00;;;;;;;;;;4949539;28;20475;-83
2022/04/05 12:21:56;;;;;;;13.93;2.97;;;;;;;;;;4949251;28;20494;-83
2022/04/05 12:24:23;;;;;;;20.35;3.03;;;;;;;;;;4949863;28;20098;-83
2022/04/05 12:26:51;;;;;;;19.52;3.40;;;;;;;;;;4967249;28;20174;-84
2022/04/05 12:29:17;;;;;;;11.63;2.58;;;;;;;;;;4965316;28;20105;-84
2022/04/05 12:31:44;;;;;;;15.50;2.88;;;;;;;;;;4945445;28;20129;-84
2022/04/05 12:34:13;;;;;;;16.42;3.60;;;;;;;;;;4965220;28;20085;-84
2022/04/05 12:36:43;;;;;;;15.05;2.85;;;;;;;;;;4967007;28;20062;-84
2022/04/05 12:39:20;;;;;;;16.05;2.92;;;;;;;;;;4964478;28;20438;-84
2022/04/05 12:41:49;;;;;;;12.50;2.75;;;;;;;;;;4966265;28;20645;-84
2022/04/05 12:44:18;;;;;;;14.50;3.40;;;;;;;;;;4964077;28;20144;-84
2022/04/05 12:46:49;;;;;;;14.90;3.00;;;;;;;;;;4966079;28;20078;-84
2022/04/05 12:49:23;;;;;;;17.98;3.45;;;;;;;;;;4965621;28;20450;-82
2022/04/05 12:52:11;;;;;;;19.42;3.63;;;;;;;;;;4961872;28;20218;-84
2022/04/05 12:54:47;;;;;;;21.38;3.30;;;;;;;;;;4966217;28;20051;-84
2022/04/05 12:57:32;;;;;;;20.10;2.90;;;;;;;;;;4948323;28;20213;-84
2022/04/05 13:00:15;;;;;;;18.05;3.17;;;;;;;;;;4966322;28;20046;-84
2022/04/05 13:02:45;;;;;;;26.13;3.45;;;;;;;;;;4965637;28;20070;-83
2022/04/05 13:08:12;;;;;;;19.40;3.10;;;;;;;;;;4965378;28;20166;-83
2022/04/05 13:10:47;;;;;;;16.95;3.88;;;;;;;;;;4965983;28;20050;-83
2022/04/05 13:13:25;;;;;;;17.45;3.55;;;;;;;;;;4948168;28;20128;-85
2022/04/05 13:16:02;;;;;;;23.55;4.15;;;;;;;;;;4948933;28;20054;-84
2022/04/05 13:18:37;;;;;;;21.17;4.10;;;;;;;;;;4965774;28;20054;-85
2022/04/05 13:21:06;;;;;;;27.85;3.67;;;;;;;;;;4966184;28;20098;-85
2022/04/05 13:23:36;;;;;;;19.95;3.40;;;;;;;;;;4966617;28;20097;-85
2022/04/05 13:26:18;;;;;;;20.27;3.80;;;;;;;;;;4966335;28;20129;-86
2022/04/05 13:28:44;;;;;;;19.95;3.78;;;;;;;;;;4949099;28;20117;-85
2022/04/05 13:31:14;;;;;;;24.45;3.33;;;;;;;;;;4965137;28;20058;-85
2022/04/05 13:33:42;;;;;;;24.42;3.50;;;;;;;;;;4965751;28;20128;-84
2022/04/05 13:36:09;;;;;;;18.75;3.53;;;;;;;;;;4965459;28;20138;-85
2022/04/05 13:38:37;;;;;;;18.58;5.47;;;;;;;;;;4966712;28;20058;-85
2022/04/05 13:41:05;;;;;;;19.53;3.50;;;;;;;;;;4948340;28;20202;-84
2022/04/05 13:43:34;;;;;;;16.80;3.55;;;;;;;;;;4967849;28;20310;-86
2022/04/05 13:46:03;;;;;;;19.65;3.13;;;;;;;;;;4967677;28;20050;-85
2022/04/05 13:48:33;;;;;;;13.00;3.03;;;;;;;;;;4969957;28;20094;-84
2022/04/05 13:51:00;;;;;;;19.55;3.13;;;;;;;;;;4968017;28;20512;-85
2022/04/05 13:53:44;;;;;;;20.40;3.70;;;;;;;;;;4954406;28;20053;-84
2022/04/05 13:56:12;;;;;;;16.23;3.00;;;;;;;;;;4969122;28;20054;-85
2022/04/05 13:58:38;;;;;;;19.77;3.92;;;;;;;;;;4969406;28;20157;-84
2022/04/05 14:01:05;;;;;;;21.83;3.45;;;;;;;;;;4967954;28;20117;-84
2022/04/05 14:03:32;;;;;;;14.48;3.13;;;;;;;;;;4969512;28;20554;-84
2022/04/05 14:05:59;;;;;;;17.83;3.15;;;;;;;;;;4969639;28;20075;-84
2022/04/05 14:08:26;;;;;;;18.77;3.28;;;;;;;;;;4969037;28;20148;-85
2022/04/05 14:10:53;;;;;;;19.85;3.25;;;;;;;;;;4951639;28;20145;-84
2022/04/05 14:13:40;;;;;;;23.98;3.28;;;;;;;;;;4954830;28;20527;-84
2022/04/05 14:16:08;;;;;;;20.13;3.22;;;;;;;;;;4968722;28;20141;-84
2022/04/05 14:18:36;;;;;;;21.30;3.13;;;;;;;;;;4969170;28;20129;-84
2022/04/05 14:21:25;;;;;;;20.58;2.80;;;;;;;;;;4968535;28;20395;-83
2022/04/05 14:23:52;;;;;;;15.02;3.08;;;;;;;;;;4969437;28;20066;-84
2022/04/05 14:26:19;;;;;;;21.73;3.08;;;;;;;;;;4968301;28;20130;-83
2022/04/05 14:28:47;;;;;;;20.67;3.53;;;;;;;;;;4968910;28;20050;-84
2022/04/05 14:31:14;;;;;;;18.08;3.85;;;;;;;;;;4967393;28;20046;-83
2022/04/05 14:33:41;;;;;;;24.60;3.92;;;;;;;;;;4969498;28;20129;-83
2022/04/05 14:36:08;;;;;;;19.00;3.30;;;;;;;;;;4968472;28;20051;-84
2022/04/05 14:38:35;;;;;;;20.27;3.50;;;;;;;;;;4969338;28;20046;-84
2022/04/05 14:41:06;;;;;;;15.82;2.92;;;;;;;;;;4967805;28;20078;-84
2022/04/05 14:43:33;;;;;;;18.48;3.05;;;;;;;;;;4967546;28;20495;-85
2022/04/05 14:46:01;;;;;;;17.35;3.15;;;;;;;;;;4967884;28;20077;-84
2022/04/05 14:48:27;;;;;;;20.40;4.00;;;;;;;;;;4968091;28;20511;-85
2022/04/05 14:50:55;;;;;;;14.00;3.38;;;;;;;;;;4950965;28;20078;-85
2022/04/05 14:53:24;;;;;;;18.30;2.90;;;;;;;;;;4968714;28;20117;-84
2022/04/05 14:55:51;;;;;;;16.85;3.22;;;;;;;;;;4950457;28;20121;-84
2022/04/05 14:58:18;;;;;;;19.63;3.67;;;;;;;;;;4966238;28;20809;-84
2022/04/05 15:00:45;;;;;;;19.02;3.65;;;;;;;;;;4950931;28;20503;-83
2022/04/05 15:03:12;;;;;;;17.90;3.42;;;;;;;;;;4967598;28;20154;-84
2022/04/05 15:05:38;;;;;;;15.95;2.97;;;;;;;;;;4969035;28;20059;-84
2022/04/05 15:08:05;;;;;;;18.40;3.15;;;;;;;;;;4966700;28;20062;-84
2022/04/05 15:10:32;;;;;;;21.10;3.85;;;;;;;;;;4967857;28;20074;-84
2022/04/05 15:12:59;;;;;;;15.00;2.40;;;;;;;;;;4967875;28;20530;-84
2022/04/05 15:15:26;;;;;;;15.35;3.35;;;;;;;;;;4967840;28;20039;-85
2022/04/05 15:17:53;;;;;;;18.95;2.92;;;;;;;;;;4968582;28;20070;-85
2022/04/05 15:20:21;;;;;;;21.92;3.55;;;;;;;;;;4967545;28;20124;-83
2022/04/05 15:22:48;;;;;;;22.25;3.63;;;;;;;;;;4951137;28;20058;-85
2022/04/05 15:25:14;;;;;;;18.02;3.03;;;;;;;;;;4967979;28;20097;-83
2022/04/05 15:27:41;;;;;;;23.13;3.85;;;;;;;;;;4950929;28;20486;-83
2022/04/05 15:30:09;;;;;;;14.05;2.63;;;;;;;;;;4967870;28;20507;-84
2022/04/05 15:32:36;;;;;;;16.85;2.95;;;;;;;;;;4969198;28;20216;-83
2022/04/05 15:35:04;;;;;;;16.75;2.92;;;;;;;;;;4950372;28;20826;-82
2022/04/05 15:37:31;;;;;;;19.40;3.47;;;;;;;;;;4967638;28;20154;-82
2022/04/05 15:39:57;;;;;;;16.05;2.80;;;;;;;;;;4950977;28;20146;-82
2022/04/05 15:42:25;;;;;;;12.85;2.97;;;;;;;;;;4966257;28;20157;-83
2022/04/05 15:44:53;;;;;;;16.58;3.35;;;;;;;;;;4952510;28;20082;-85
2022/04/05 15:47:19;;;;;;;19.60;3.20;;;;;;;;;;4967403;28;20046;-84
2022/04/05 15:49:46;;;;;;;20.50;3.33;;;;;;;;;;4950877;28;20454;-82
2022/04/05 15:52:13;;;;;;;14.52;3.28;;;;;;;;;;4967155;28;20130;-84
2022/04/05 15:54:39;;;;;;;18.42;3.03;;;;;;;;;;4972121;28;20141;-84
2022/04/05 15:57:06;;;;;;;14.05;3.42;;;;;;;;;;4970018;28;20047;-84
2022/04/05 15:59:33;;;;;;;18.42;3.15;;;;;;;;;;4968685;28;20142;-84
2022/04/05 16:02:00;;;;;;;18.08;3.03;;;;;;;;;;4950834;28;20548;-84
2022/04/05 16:04:26;;;;;;;15.68;2.40;;;;;;;;;;4966712;28;20459;-83
2022/04/05 16:06:53;;;;;;;15.43;2.45;;;;;;;;;;4966977;28;20134;-85
2022/04/05 16:09:20;;;;;;;19.02;2.60;;;;;;;;;;4967092;28;20173;-85
2022/04/05 16:11:46;;;;;;;13.40;2.60;;;;;;;;;;4968154;28;20137;-84
2022/04/05 16:14:13;;;;;;;14.52;2.53;;;;;;;;;;4967048;28;20137;-85
2022/04/05 16:16:39;;;;;;;16.00;2.75;;;;;;;;;;4968881;28;20074;-85
2022/04/05 16:19:06;;;;;;;17.73;2.30;;;;;;;;;;4949809;28;20049;-85
2022/04/05 16:21:34;;;;;;;20.77;3.17;;;;;;;;;;4967817;28;20133;-85
2022/04/05 16:24:01;;;;;;;18.75;2.20;;;;;;;;;;4967840;28;20138;-84
2022/04/05 16:26:31;;;;;;;14.00;2.17;;;;;;;;;;4967845;28;20129;-84
2022/04/05 16:28:57;;;;;;;14.80;2.30;;;;;;;;;;4966163;28;20054;-84
2022/04/05 16:31:24;;;;;;;13.57;2.88;;;;;;;;;;4966486;28;20054;-83
2022/04/05 16:33:52;;;;;;;19.80;2.42;;;;;;;;;;4967719;28;20074;-84
2022/04/05 16:36:19;;;;;;;19.27;2.63;;;;;;;;;;4966754;28;20135;-85
2022/04/05 16:38:46;;;;;;;17.75;2.50;;;;;;;;;;4950137;28;20146;-83
2022/04/05 16:41:12;;;;;;;15.07;2.55;;;;;;;;;;4948611;28;20141;-84
2022/04/05 16:43:41;;;;;;;16.88;2.53;;;;;;;;;;4965986;28;20043;-84
2022/04/05 16:46:08;;;;;;;14.38;2.42;;;;;;;;;;4966901;28;20126;-84
2022/04/05 16:48:36;;;;;;;13.27;2.38;;;;;;;;;;4950043;28;20070;-83
2022/04/05 16:51:04;;;;;;;17.52;2.97;;;;;;;;;;4950065;28;20570;-83
2022/04/05 16:53:31;;;;;;;16.13;2.67;;;;;;;;;;4950330;28;20595;-82
2022/04/05 16:55:58;;;;;;;16.38;2.45;;;;;;;;;;4967332;28;20153;-82
2022/04/05 16:58:25;;;;;;;16.23;2.40;;;;;;;;;;4967308;28;20074;-82
2022/04/05 17:00:52;;;;;;;15.55;2.20;;;;;;;;;;4967524;28;20055;-83
2022/04/05 17:03:18;;;;;;;12.50;2.40;;;;;;;;;;4966801;28;20078;-84
2022/04/05 17:05:45;;;;;;;13.18;2.38;;;;;;;;;;4973538;28;20054;-83
2022/04/05 17:08:13;;;;;;;14.13;2.40;;;;;;;;;;4978038;28;20481;-84
2022/04/05 17:10:40;;;;;;;15.02;2.85;;;;;;;;;;4971632;28;20058;-84
2022/04/05 17:13:07;;;;;;;15.35;2.50;;;;;;;;;;4962017;28;20161;-85
2022/04/05 17:15:34;;;;;;;13.65;2.35;;;;;;;;;;4966611;28;20046;-85
2022/04/05 17:18:01;;;;;;;16.92;2.80;;;;;;;;;;4966936;28;20071;-84
2022/04/05 17:20:28;;;;;;;10.85;2.30;;;;;;;;;;4949105;28;20582;-83
2022/04/05 17:22:55;;;;;;;13.35;2.20;;;;;;;;;;4966228;28;20078;-83
2022/04/05 17:25:21;;;;;;;11.57;1.90;;;;;;;;;;4964708;28;20054;-84
2022/04/05 17:27:48;;;;;;;12.23;2.00;;;;;;;;;;4965767;28;20074;-83
2022/04/05 17:30:16;;;;;;;10.68;2.17;;;;;;;;;;4952189;28;20102;-83
2022/04/05 17:32:43;;;;;;;16.35;2.10;;;;;;;;;;4956105;28;20047;-83
2022/04/05 17:35:12;;;;;;;12.43;2.03;;;;;;;;;;4954056;28;20504;-83
2022/04/05 17:37:41;;;;;;;11.45;2.20;;;;;;;;;;4958523;28;20537;-83
2022/04/05 17:40:09;;;;;;;10.95;1.90;;;;;;;;;;4953320;28;20499;-83
2022/04/05 17:42:35;;;;;;;10.45;1.48;;;;;;;;;;4948380;28;20530;-85
2022/04/05 17:45:02;;;;;;;16.40;2.00;;;;;;;;;;4967028;28;20150;-85
2022/04/05 17:47:29;;;;;;;9.40;2.13;;;;;;;;;;4965330;28;20585;-83
2022/04/05 17:49:56;;;;;;;15.07;2.30;;;;;;;;;;4963667;28;20082;-84
2022/04/05 17:52:23;;;;;;;9.50;1.60;;;;;;;;;;4956517;28;20075;-83
2022/04/05 17:55:09;;;;;;;10.40;1.60;;;;;;;;;;4960988;28;20078;-82
2022/04/05 17:57:37;;;;;;;9.63;2.30;;;;;;;;;;4956947;28;20121;-84
2022/04/05 18:00:06;;;;;;;11.63;1.80;;;;;;;;;;4953139;28;20102;-84
2022/04/05 18:02:32;;;;;;;;;;;;;;;;;;4958103;28;20476;-83
2022/04/05 18:05:01;;;;;;;11.82;1.65;;;;;;;;;;4954653;28;19922;-83
2022/04/05 18:07:27;;;;;;;10.75;1.42;;;;;;;;;;4960789;28;20114;-84
2022/04/05 18:10:13;;;;;;;8.90;1.42;;;;;;;;;;4964992;28;20555;-84
2022/04/05 18:12:43;;;;;;;10.80;1.60;;;;;;;;;;4963662;28;20499;-85
2022/04/05 18:15:11;;;;;;;6.93;1.70;;;;;;;;;;4964676;28;20051;-84
2022/04/05 18:17:39;;;;;;;8.90;1.70;;;;;;;;;;4949258;28;20138;-84
2022/04/05 18:20:08;;;;;;;6.65;1.65;;;;;;;;;;4947669;28;20043;-84
2022/04/05 18:22:37;;;;;;;10.55;1.67;;;;;;;;;;4964116;28;20144;-84
2022/04/05 18:25:07;;;;;;;8.18;1.65;;;;;;;;;;4963786;28;20077;-85
2022/04/05 18:27:33;;;;;;;8.50;1.52;;;;;;;;;;4947494;28;20142;-84
2022/04/05 18:30:00;;;;;;;11.05;1.85;;;;;;;;;;4945263;28;20482;-84
2022/04/05 18:32:37;;;;;;;7.15;1.55;;;;;;;;;;4964749;28;20051;-85
2022/04/05 18:35:06;;;;;;;6.50;1.33;;;;;;;;;;4968521;28;20070;-83
2022/04/05 18:37:37;;;;;;;10.77;1.48;;;;;;;;;;4968575;28;20055;-85
2022/04/05 18:40:07;;;;;;;8.63;1.65;;;;;;;;;;4969598;28;20170;-85
2022/04/05 18:42:35;;;;;;;10.40;1.63;;;;;;;;;;4968486;28;20141;-84
2022/04/05 18:45:06;;;;;;;6.05;1.48;;;;;;;;;;4969187;28;20066;-84
2022/04/05 18:47:33;;;;;;;7.50;1.77;;;;;;;;;;4968576;28;20054;-85
2022/04/05 18:50:00;;;;;;;9.23;1.45;;;;;;;;;;4965608;28;20074;-84
2022/04/05 18:52:26;;;;;;;9.38;1.50;;;;;;;;;;4967594;28;20454;-85
2022/04/05 18:54:53;;;;;;;7.10;1.50;;;;;;;;;;4968531;28;20081;-85
2022/04/05 18:57:38;;;;;;;10.85;2.22;;;;;;;;;;4953551;28;20047;-84
2022/04/05 19:00:05;;;;;;;5.78;1.25;;;;;;;;;;4949816;28;20136;-84
2022/04/05 19:02:32;;;;;;;8.07;1.48;;;;;;;;;;4949004;28;20146;-84
2022/04/05 19:04:59;;;;;;;9.30;2.28;;;;;;;;;;4958051;28;20567;-85
2022/04/05 19:07:25;;;;;;;7.40;1.48;;;;;;;;;;4961326;28;20045;-83
2022/04/05 19:09:52;;;;;;;8.80;1.50;;;;;;;;;;4968794;28;20055;-84
2022/04/05 19:12:19;;;;;;;10.00;1.63;;;;;;;;;;4967419;28;20130;-84
2022/04/05 19:14:45;;;;;;;7.13;1.98;;;;;;;;;;4968615;28;20078;-85
2022/04/05 19:17:12;;;;;;;12.60;1.70;;;;;;;;;;4961518;28;20074;-83
2022/04/05 19:19:39;;;;;;;6.50;1.65;;;;;;;;;;4959769;28;20057;-83
2022/04/05 19:22:06;;;;;;;9.07;1.88;;;;;;;;;;4956217;28;20063;-84
2022/04/05 19:24:33;;;;;;;11.23;2.08;;;;;;;;;;4949082;28;20138;-84
2022/04/05 19:27:03;;;;;;;8.80;2.05;;;;;;;;;;4956385;28;20070;-86
2022/04/05 19:29:29;;;;;;;7.03;1.48;;;;;;;;;;4961299;28;20117;-82
2022/04/05 19:31:56;;;;;;;7.07;1.33;;;;;;;;;;4958284;28;20085;-83
2022/04/05 19:34:23;;;;;;;5.72;1.35;;;;;;;;;;4965376;28;20581;-84
2022/04/05 19:36:51;;;;;;;7.38;1.45;;;;;;;;;;4968564;28;20066;-84
2022/04/05 19:39:17;;;;;;;7.85;1.58;;;;;;;;;;4969376;28;20174;-84
2022/04/05 19:41:44;;;;;;;4.93;1.38;;;;;;;;;;4970480;28;20113;-83
2022/04/05 19:44:10;;;;;;;9.52;1.38;;;;;;;;;;4968950;28;20141;-82
2022/04/05 19:46:37;;;;;;;4.60;1.30;;;;;;;;;;4966210;28;20480;-83
2022/04/05 19:49:04;;;;;;;5.78;1.50;;;;;;;;;;4967239;28;20057;-82
2022/04/05 19:51:31;;;;;;;11.40;1.55;;;;;;;;;;4968028;28;20061;-82
2022/04/05 19:54:03;;;;;;;5.47;1.23;;;;;;;;;;4969142;28;20074;-83
2022/04/05 19:56:30;;;;;;;7.90;1.40;;;;;;;;;;4968612;28;20059;-83
2022/04/05 19:59:00;;;;;;;8.65;1.60;;;;;;;;;;4966691;28;20042;-83
2022/04/05 20:01:27;;;;;;;5.15;1.48;;;;;;;;;;4966899;28;20053;-83
2022/04/05 20:03:55;;;;;;;10.93;2.20;;;;;;;;;;4967728;28;20137;-83
2022/04/05 20:06:23;;;;;;;7.97;1.67;;;;;;;;;;4966970;28;20137;-83
2022/04/05 20:08:51;;;;;;;7.40;1.45;;;;;;;;;;4968307;28;20051;-83
2022/04/05 20:11:17;;;;;;;9.43;1.40;;;;;;;;;;4965194;28;20130;-84
2022/04/05 20:13:44;;;;;;;6.47;1.60;;;;;;;;;;4967278;28;20055;-82
2022/04/05 20:18:57;;;;;;;10.88;1.80;;;;;;;;;;4967536;28;20137;-84
2022/04/05 20:21:25;;;;;;;4.97;1.30;;;;;;;;;;4967382;28;20054;-83
2022/04/05 20:23:52;;;;;;;7.78;1.55;;;;;;;;;;4968472;28;20547;-84
2022/04/05 20:26:18;;;;;;;7.10;1.50;;;;;;;;;;4949397;28;20065;-81
2022/04/05 20:28:45;;;;;;;8.60;1.42;;;;;;;;;;4967387;28;20058;-83
2022/04/05 20:31:12;;;;;;;7.32;1.65;;;;;;;;;;4966990;28;20971;-83
2022/04/05 20:33:41;;;;;;;9.32;1.55;;;;;;;;;;4967315;28;20046;-83
2022/04/05 20:36:11;;;;;;;11.30;2.05;;;;;;;;;;4966496;28;20054;-83
2022/04/05 20:38:39;;;;;;;7.45;1.83;;;;;;;;;;4967200;28;20161;-83
2022/04/05 20:41:07;;;;;;;6.25;2.15;;;;;;;;;;4965362;28;20112;-82
2022/04/05 20:43:34;;;;;;;9.27;1.73;;;;;;;;;;4966914;28;20455;-82
2022/04/05 20:46:01;;;;;;;7.38;1.70;;;;;;;;;;4939848;28;20130;-84
2022/04/05 20:48:28;;;;;;;7.28;1.73;;;;;;;;;;4966641;28;20137;-82
2022/04/05 20:50:55;;;;;;;7.38;1.70;;;;;;;;;;4965384;28;20058;-84
2022/04/05 20:53:22;;;;;;;9.32;1.88;;;;;;;;;;4965581;28;20071;-85